sensor_id;sensor_type;location;lat;lon;timestamp;P1;durP1;ratioP1;P2;durP2;ratioP2
41687;SDS011;27371;42.686;23.362;2023-12-20T00:00:12;111.35;;;70.82;;
41687;SDS011;27371;42.686;23.362;2023-12-20T00:02:37;104.30;;;66.07;;
41687;SDS011;27371;42.686;23.362;2023-12-20T00:05:02;101.55;;;64.20;;
41687;SDS011;27371;42.686;23.362;2023-12-20T00:07:28;104.80;;;65.82;;
41687;SDS011;27371;42.686;23.362;2023-12-20T00:09:53;107.28;;;68.65;;
41687;SDS011;27371;42.686;23.362;2023-12-20T00:12:18;114.03;;;72.45;;
41687;SDS011;27371;42.686;23.362;2023-12-20T00:14:44;114.18;;;71.28;;
41687;SDS011;27371;42.686;23.362;2023-12-20T00:17:09;114.93;;;72.18;;
41687;SDS011;27371;42.686;23.362;2023-12-20T00:19:34;115.90;;;72.97;;
41687;SDS011;27371;42.686;23.362;2023-12-20T00:22:00;108.18;;;67.70;;
41687;SDS011;27371;42.686;23.362;2023-12-20T00:24:25;110.32;;;68.82;;
41687;SDS011;27371;42.686;23.362;2023-12-20T00:26:51;113.28;;;72.03;;
41687;SDS011;27371;42.686;23.362;2023-12-20T00:29:16;107.32;;;71.38;;
41687;SDS011;27371;42.686;23.362;2023-12-20T00:31:42;113.78;;;72.00;;
41687;SDS011;27371;42.686;23.362;2023-12-20T00:34:07;135.02;;;85.68;;
41687;SDS011;27371;42.686;23.362;2023-12-20T00:36:32;152.85;;;97.35;;
41687;SDS011;27371;42.686;23.362;2023-12-20T00:38:58;129.35;;;81.53;;
41687;SDS011;27371;42.686;23.362;2023-12-20T00:41:23;128.25;;;79.40;;
41687;SDS011;27371;42.686;23.362;2023-12-20T00:43:48;118.55;;;74.45;;
41687;SDS011;27371;42.686;23.362;2023-12-20T00:46:14;120.55;;;73.93;;
41687;SDS011;27371;42.686;23.362;2023-12-20T00:48:39;118.35;;;72.22;;
41687;SDS011;27371;42.686;23.362;2023-12-20T00:51:07;130.88;;;82.00;;
41687;SDS011;27371;42.686;23.362;2023-12-20T00:53:32;135.15;;;86.88;;
41687;SDS011;27371;42.686;23.362;2023-12-20T00:55:58;155.93;;;95.68;;
41687;SDS011;27371;42.686;23.362;2023-12-20T00:58:23;131.27;;;86.50;;
41687;SDS011;27371;42.686;23.362;2023-12-20T01:03:24;130.10;;;80.65;;
41687;SDS011;27371;42.686;23.362;2023-12-20T01:05:49;142.45;;;91.05;;
41687;SDS011;27371;42.686;23.362;2023-12-20T01:08:15;118.38;;;73.28;;
41687;SDS011;27371;42.686;23.362;2023-12-20T01:10:40;103.20;;;63.85;;
41687;SDS011;27371;42.686;23.362;2023-12-20T01:13:06;135.02;;;84.15;;
41687;SDS011;27371;42.686;23.362;2023-12-20T01:15:31;137.93;;;85.38;;
41687;SDS011;27371;42.686;23.362;2023-12-20T01:17:56;132.30;;;78.45;;
41687;SDS011;27371;42.686;23.362;2023-12-20T01:20:27;144.63;;;88.60;;
41687;SDS011;27371;42.686;23.362;2023-12-20T01:22:52;134.13;;;85.88;;
41687;SDS011;27371;42.686;23.362;2023-12-20T01:25:17;136.55;;;87.53;;
41687;SDS011;27371;42.686;23.362;2023-12-20T01:27:44;150.23;;;92.63;;
41687;SDS011;27371;42.686;23.362;2023-12-20T01:30:09;144.07;;;88.88;;
41687;SDS011;27371;42.686;23.362;2023-12-20T01:32:35;136.55;;;84.65;;
41687;SDS011;27371;42.686;23.362;2023-12-20T01:35:00;142.20;;;88.18;;
41687;SDS011;27371;42.686;23.362;2023-12-20T01:37:25;143.00;;;91.60;;
41687;SDS011;27371;42.686;23.362;2023-12-20T01:39:51;184.98;;;113.28;;
41687;SDS011;27371;42.686;23.362;2023-12-20T01:42:18;192.27;;;117.68;;
41687;SDS011;27371;42.686;23.362;2023-12-20T01:44:43;183.40;;;113.38;;
41687;SDS011;27371;42.686;23.362;2023-12-20T01:47:08;200.07;;;118.20;;
41687;SDS011;27371;42.686;23.362;2023-12-20T01:49:34;181.82;;;110.68;;
41687;SDS011;27371;42.686;23.362;2023-12-20T01:52:00;192.93;;;114.68;;
41687;SDS011;27371;42.686;23.362;2023-12-20T01:54:26;194.60;;;114.10;;
41687;SDS011;27371;42.686;23.362;2023-12-20T01:56:51;191.93;;;117.05;;
41687;SDS011;27371;42.686;23.362;2023-12-20T01:59:17;207.13;;;115.63;;
41687;SDS011;27371;42.686;23.362;2023-12-20T02:01:43;191.65;;;112.82;;
41687;SDS011;27371;42.686;23.362;2023-12-20T02:04:08;210.68;;;118.03;;
41687;SDS011;27371;42.686;23.362;2023-12-20T02:06:34;188.68;;;111.78;;
41687;SDS011;27371;42.686;23.362;2023-12-20T02:08:59;167.77;;;101.05;;
41687;SDS011;27371;42.686;23.362;2023-12-20T02:11:27;166.13;;;94.85;;
41687;SDS011;27371;42.686;23.362;2023-12-20T02:13:53;155.38;;;90.32;;
41687;SDS011;27371;42.686;23.362;2023-12-20T02:16:19;157.95;;;89.20;;
41687;SDS011;27371;42.686;23.362;2023-12-20T02:18:44;154.60;;;89.15;;
41687;SDS011;27371;42.686;23.362;2023-12-20T02:21:10;159.30;;;89.50;;
41687;SDS011;27371;42.686;23.362;2023-12-20T02:23:35;151.90;;;88.78;;
41687;SDS011;27371;42.686;23.362;2023-12-20T02:26:02;161.38;;;89.95;;
41687;SDS011;27371;42.686;23.362;2023-12-20T02:28:27;160.70;;;86.85;;
41687;SDS011;27371;42.686;23.362;2023-12-20T02:30:53;148.15;;;85.90;;
41687;SDS011;27371;42.686;23.362;2023-12-20T02:33:18;142.30;;;88.60;;
41687;SDS011;27371;42.686;23.362;2023-12-20T02:35:43;143.02;;;85.88;;
41687;SDS011;27371;42.686;23.362;2023-12-20T02:38:09;144.98;;;86.32;;
41687;SDS011;27371;42.686;23.362;2023-12-20T02:40:34;136.90;;;81.22;;
41687;SDS011;27371;42.686;23.362;2023-12-20T02:42:59;126.80;;;75.75;;
41687;SDS011;27371;42.686;23.362;2023-12-20T02:45:25;125.53;;;70.72;;
41687;SDS011;27371;42.686;23.362;2023-12-20T02:47:51;125.38;;;70.00;;
41687;SDS011;27371;42.686;23.362;2023-12-20T02:50:16;112.25;;;64.57;;
41687;SDS011;27371;42.686;23.362;2023-12-20T02:52:44;123.32;;;61.08;;
41687;SDS011;27371;42.686;23.362;2023-12-20T02:55:09;112.93;;;66.93;;
41687;SDS011;27371;42.686;23.362;2023-12-20T02:57:35;109.82;;;65.63;;
41687;SDS011;27371;42.686;23.362;2023-12-20T03:00:01;115.68;;;67.97;;
41687;SDS011;27371;42.686;23.362;2023-12-20T03:02:26;115.13;;;64.38;;
41687;SDS011;27371;42.686;23.362;2023-12-20T03:04:52;103.05;;;60.40;;
41687;SDS011;27371;42.686;23.362;2023-12-20T03:07:17;96.65;;;56.55;;
41687;SDS011;27371;42.686;23.362;2023-12-20T03:09:42;92.53;;;54.25;;
41687;SDS011;27371;42.686;23.362;2023-12-20T03:12:08;81.70;;;48.33;;
41687;SDS011;27371;42.686;23.362;2023-12-20T03:14:33;64.85;;;40.03;;
41687;SDS011;27371;42.686;23.362;2023-12-20T03:16:58;50.70;;;31.35;;
41687;SDS011;27371;42.686;23.362;2023-12-20T03:19:24;52.47;;;33.38;;
41687;SDS011;27371;42.686;23.362;2023-12-20T03:21:49;50.72;;;32.20;;
41687;SDS011;27371;42.686;23.362;2023-12-20T03:24:15;50.03;;;32.85;;
41687;SDS011;27371;42.686;23.362;2023-12-20T03:26:40;49.88;;;31.88;;
41687;SDS011;27371;42.686;23.362;2023-12-20T03:29:05;52.58;;;32.45;;
41687;SDS011;27371;42.686;23.362;2023-12-20T03:31:31;54.70;;;33.40;;
41687;SDS011;27371;42.686;23.362;2023-12-20T03:33:57;60.63;;;37.78;;
41687;SDS011;27371;42.686;23.362;2023-12-20T03:36:23;63.03;;;37.15;;
41687;SDS011;27371;42.686;23.362;2023-12-20T03:38:48;80.60;;;46.95;;
41687;SDS011;27371;42.686;23.362;2023-12-20T03:41:13;68.40;;;42.03;;
41687;SDS011;27371;42.686;23.362;2023-12-20T03:43:39;70.40;;;42.65;;
41687;SDS011;27371;42.686;23.362;2023-12-20T03:46:04;69.32;;;41.95;;
41687;SDS011;27371;42.686;23.362;2023-12-20T03:48:30;71.47;;;41.65;;
41687;SDS011;27371;42.686;23.362;2023-12-20T03:50:56;72.13;;;41.40;;
41687;SDS011;27371;42.686;23.362;2023-12-20T03:53:22;59.38;;;37.78;;
41687;SDS011;27371;42.686;23.362;2023-12-20T03:55:47;63.83;;;38.17;;
41687;SDS011;27371;42.686;23.362;2023-12-20T03:58:12;51.92;;;31.20;;
41687;SDS011;27371;42.686;23.362;2023-12-20T04:00:38;50.30;;;30.52;;
41687;SDS011;27371;42.686;23.362;2023-12-20T04:03:03;59.53;;;36.75;;
41687;SDS011;27371;42.686;23.362;2023-12-20T04:05:29;67.82;;;39.38;;
41687;SDS011;27371;42.686;23.362;2023-12-20T04:07:54;69.93;;;41.53;;
41687;SDS011;27371;42.686;23.362;2023-12-20T04:10:19;67.90;;;41.15;;
41687;SDS011;27371;42.686;23.362;2023-12-20T04:12:45;65.63;;;42.10;;
41687;SDS011;27371;42.686;23.362;2023-12-20T04:15:10;63.08;;;38.40;;
41687;SDS011;27371;42.686;23.362;2023-12-20T04:17:37;55.65;;;33.80;;
41687;SDS011;27371;42.686;23.362;2023-12-20T04:20:02;64.35;;;38.65;;
41687;SDS011;27371;42.686;23.362;2023-12-20T04:22:28;107.95;;;45.70;;
41687;SDS011;27371;42.686;23.362;2023-12-20T04:24:53;131.52;;;49.05;;
41687;SDS011;27371;42.686;23.362;2023-12-20T04:27:18;98.18;;;46.95;;
41687;SDS011;27371;42.686;23.362;2023-12-20T04:29:44;124.95;;;52.20;;
41687;SDS011;27371;42.686;23.362;2023-12-20T04:32:09;148.48;;;64.35;;
41687;SDS011;27371;42.686;23.362;2023-12-20T04:34:34;133.98;;;60.75;;
41687;SDS011;27371;42.686;23.362;2023-12-20T04:37:00;126.80;;;61.22;;
41687;SDS011;27371;42.686;23.362;2023-12-20T04:39:26;118.57;;;59.80;;
41687;SDS011;27371;42.686;23.362;2023-12-20T04:41:52;108.68;;;55.15;;
41687;SDS011;27371;42.686;23.362;2023-12-20T04:44:17;102.57;;;55.25;;
41687;SDS011;27371;42.686;23.362;2023-12-20T04:46:43;117.88;;;51.17;;
41687;SDS011;27371;42.686;23.362;2023-12-20T04:49:08;110.47;;;52.72;;
41687;SDS011;27371;42.686;23.362;2023-12-20T04:51:33;107.13;;;49.13;;
41687;SDS011;27371;42.686;23.362;2023-12-20T04:53:59;129.10;;;50.97;;
41687;SDS011;27371;42.686;23.362;2023-12-20T04:56:24;156.70;;;47.78;;
41687;SDS011;27371;42.686;23.362;2023-12-20T04:58:50;97.68;;;44.05;;
41687;SDS011;27371;42.686;23.362;2023-12-20T05:01:15;209.30;;;52.75;;
41687;SDS011;27371;42.686;23.362;2023-12-20T05:03:42;196.18;;;53.83;;
41687;SDS011;27371;42.686;23.362;2023-12-20T05:06:07;126.35;;;48.20;;
41687;SDS011;27371;42.686;23.362;2023-12-20T05:08:32;104.38;;;44.60;;
41687;SDS011;27371;42.686;23.362;2023-12-20T05:10:58;100.43;;;43.40;;
41687;SDS011;27371;42.686;23.362;2023-12-20T05:13:23;114.57;;;46.50;;
41687;SDS011;27371;42.686;23.362;2023-12-20T05:15:48;73.82;;;40.80;;
41687;SDS011;27371;42.686;23.362;2023-12-20T05:18:14;113.63;;;44.95;;
41687;SDS011;27371;42.686;23.362;2023-12-20T05:20:39;109.55;;;49.72;;
41687;SDS011;27371;42.686;23.362;2023-12-20T05:23:05;128.48;;;49.33;;
41687;SDS011;27371;42.686;23.362;2023-12-20T05:25:30;86.00;;;47.25;;
41687;SDS011;27371;42.686;23.362;2023-12-20T05:27:55;103.63;;;43.67;;
41687;SDS011;27371;42.686;23.362;2023-12-20T05:30:21;74.80;;;39.45;;
41687;SDS011;27371;42.686;23.362;2023-12-20T05:32:47;86.30;;;41.15;;
41687;SDS011;27371;42.686;23.362;2023-12-20T05:35:12;74.53;;;39.53;;
41687;SDS011;27371;42.686;23.362;2023-12-20T05:37:37;80.93;;;41.97;;
41687;SDS011;27371;42.686;23.362;2023-12-20T05:40:03;79.82;;;41.95;;
41687;SDS011;27371;42.686;23.362;2023-12-20T05:42:29;96.53;;;46.35;;
41687;SDS011;27371;42.686;23.362;2023-12-20T05:44:54;85.80;;;43.05;;
41687;SDS011;27371;42.686;23.362;2023-12-20T05:47:20;84.15;;;42.30;;
41687;SDS011;27371;42.686;23.362;2023-12-20T05:49:45;81.60;;;41.95;;
41687;SDS011;27371;42.686;23.362;2023-12-20T05:52:10;72.13;;;42.08;;
41687;SDS011;27371;42.686;23.362;2023-12-20T05:54:36;70.80;;;40.05;;
41687;SDS011;27371;42.686;23.362;2023-12-20T05:57:01;67.20;;;39.60;;
41687;SDS011;27371;42.686;23.362;2023-12-20T05:59:26;71.03;;;40.13;;
41687;SDS011;27371;42.686;23.362;2023-12-20T06:01:52;70.13;;;38.13;;
41687;SDS011;27371;42.686;23.362;2023-12-20T06:04:17;66.05;;;37.70;;
41687;SDS011;27371;42.686;23.362;2023-12-20T06:06:42;62.13;;;35.60;;
41687;SDS011;27371;42.686;23.362;2023-12-20T06:09:08;67.25;;;37.92;;
41687;SDS011;27371;42.686;23.362;2023-12-20T06:11:33;63.55;;;36.67;;
41687;SDS011;27371;42.686;23.362;2023-12-20T06:13:59;69.93;;;35.33;;
41687;SDS011;27371;42.686;23.362;2023-12-20T06:16:24;55.47;;;33.28;;
41687;SDS011;27371;42.686;23.362;2023-12-20T06:18:50;67.00;;;36.80;;
41687;SDS011;27371;42.686;23.362;2023-12-20T06:21:15;58.33;;;35.22;;
41687;SDS011;27371;42.686;23.362;2023-12-20T06:23:41;61.70;;;36.00;;
41687;SDS011;27371;42.686;23.362;2023-12-20T06:26:06;65.53;;;35.05;;
41687;SDS011;27371;42.686;23.362;2023-12-20T06:28:31;59.42;;;34.13;;
41687;SDS011;27371;42.686;23.362;2023-12-20T06:30:57;54.67;;;32.63;;
41687;SDS011;27371;42.686;23.362;2023-12-20T06:33:23;65.90;;;36.50;;
41687;SDS011;27371;42.686;23.362;2023-12-20T06:35:49;68.32;;;38.78;;
41687;SDS011;27371;42.686;23.362;2023-12-20T06:38:14;71.72;;;36.85;;
41687;SDS011;27371;42.686;23.362;2023-12-20T06:40:40;69.82;;;39.65;;
41687;SDS011;27371;42.686;23.362;2023-12-20T06:43:05;64.60;;;37.90;;
41687;SDS011;27371;42.686;23.362;2023-12-20T06:45:31;68.13;;;39.47;;
41687;SDS011;27371;42.686;23.362;2023-12-20T06:47:57;62.90;;;33.20;;
41687;SDS011;27371;42.686;23.362;2023-12-20T06:50:23;66.75;;;34.92;;
41687;SDS011;27371;42.686;23.362;2023-12-20T06:52:48;65.55;;;33.78;;
41687;SDS011;27371;42.686;23.362;2023-12-20T06:55:14;54.20;;;25.42;;
41687;SDS011;27371;42.686;23.362;2023-12-20T06:57:39;43.65;;;24.80;;
41687;SDS011;27371;42.686;23.362;2023-12-20T07:00:05;42.65;;;24.90;;
41687;SDS011;27371;42.686;23.362;2023-12-20T07:02:30;46.67;;;24.80;;
41687;SDS011;27371;42.686;23.362;2023-12-20T07:04:56;47.92;;;25.52;;
41687;SDS011;27371;42.686;23.362;2023-12-20T07:07:22;52.13;;;26.88;;
41687;SDS011;27371;42.686;23.362;2023-12-20T07:09:49;45.90;;;26.83;;
41687;SDS011;27371;42.686;23.362;2023-12-20T07:12:15;57.60;;;28.13;;
41687;SDS011;27371;42.686;23.362;2023-12-20T07:14:40;53.42;;;29.08;;
41687;SDS011;27371;42.686;23.362;2023-12-20T07:17:06;50.88;;;29.35;;
41687;SDS011;27371;42.686;23.362;2023-12-20T07:19:36;53.17;;;28.58;;
41687;SDS011;27371;42.686;23.362;2023-12-20T07:22:01;56.28;;;30.33;;
41687;SDS011;27371;42.686;23.362;2023-12-20T07:24:27;55.97;;;30.30;;
41687;SDS011;27371;42.686;23.362;2023-12-20T07:26:52;60.70;;;35.25;;
41687;SDS011;27371;42.686;23.362;2023-12-20T07:29:18;53.58;;;30.50;;
41687;SDS011;27371;42.686;23.362;2023-12-20T07:31:43;57.70;;;29.45;;
41687;SDS011;27371;42.686;23.362;2023-12-20T07:34:08;57.55;;;33.28;;
41687;SDS011;27371;42.686;23.362;2023-12-20T07:36:34;67.15;;;35.40;;
41687;SDS011;27371;42.686;23.362;2023-12-20T07:38:59;63.67;;;31.98;;
41687;SDS011;27371;42.686;23.362;2023-12-20T07:41:24;52.90;;;27.88;;
41687;SDS011;27371;42.686;23.362;2023-12-20T07:43:50;52.78;;;29.83;;
41687;SDS011;27371;42.686;23.362;2023-12-20T07:46:16;56.00;;;27.80;;
41687;SDS011;27371;42.686;23.362;2023-12-20T07:48:41;56.17;;;30.02;;
41687;SDS011;27371;42.686;23.362;2023-12-20T07:51:07;61.42;;;32.22;;
41687;SDS011;27371;42.686;23.362;2023-12-20T07:53:34;58.97;;;31.95;;
41687;SDS011;27371;42.686;23.362;2023-12-20T07:56:00;61.95;;;30.13;;
41687;SDS011;27371;42.686;23.362;2023-12-20T07:58:25;59.50;;;29.08;;
41687;SDS011;27371;42.686;23.362;2023-12-20T08:00:51;59.72;;;32.65;;
41687;SDS011;27371;42.686;23.362;2023-12-20T08:03:16;65.22;;;34.53;;
41687;SDS011;27371;42.686;23.362;2023-12-20T08:05:41;66.13;;;34.85;;
41687;SDS011;27371;42.686;23.362;2023-12-20T08:08:07;77.28;;;34.70;;
41687;SDS011;27371;42.686;23.362;2023-12-20T08:10:32;76.07;;;37.35;;
41687;SDS011;27371;42.686;23.362;2023-12-20T08:12:58;75.20;;;41.30;;
41687;SDS011;27371;42.686;23.362;2023-12-20T08:15:23;87.35;;;42.97;;
41687;SDS011;27371;42.686;23.362;2023-12-20T08:17:48;90.25;;;46.03;;
41687;SDS011;27371;42.686;23.362;2023-12-20T08:20:16;95.38;;;44.42;;
41687;SDS011;27371;42.686;23.362;2023-12-20T08:22:41;90.40;;;43.63;;
41687;SDS011;27371;42.686;23.362;2023-12-20T08:25:06;96.38;;;45.75;;
41687;SDS011;27371;42.686;23.362;2023-12-20T08:27:33;96.40;;;47.72;;
41687;SDS011;27371;42.686;23.362;2023-12-20T08:29:59;111.65;;;52.42;;
41687;SDS011;27371;42.686;23.362;2023-12-20T08:32:27;107.57;;;50.60;;
41687;SDS011;27371;42.686;23.362;2023-12-20T08:34:52;104.32;;;50.92;;
41687;SDS011;27371;42.686;23.362;2023-12-20T08:37:18;107.55;;;51.60;;
41687;SDS011;27371;42.686;23.362;2023-12-20T08:39:43;118.43;;;51.17;;
41687;SDS011;27371;42.686;23.362;2023-12-20T08:42:09;126.05;;;53.30;;
41687;SDS011;27371;42.686;23.362;2023-12-20T08:44:34;114.03;;;50.97;;
41687;SDS011;27371;42.686;23.362;2023-12-20T08:46:59;111.55;;;50.58;;
41687;SDS011;27371;42.686;23.362;2023-12-20T08:49:25;106.93;;;48.55;;
41687;SDS011;27371;42.686;23.362;2023-12-20T08:51:50;114.85;;;50.70;;
41687;SDS011;27371;42.686;23.362;2023-12-20T08:54:16;104.30;;;47.55;;
41687;SDS011;27371;42.686;23.362;2023-12-20T08:56:42;100.30;;;46.92;;
41687;SDS011;27371;42.686;23.362;2023-12-20T08:59:08;87.90;;;41.33;;
41687;SDS011;27371;42.686;23.362;2023-12-20T09:01:34;96.60;;;44.70;;
41687;SDS011;27371;42.686;23.362;2023-12-20T09:04:00;109.65;;;46.55;;
41687;SDS011;27371;42.686;23.362;2023-12-20T09:06:25;90.47;;;43.47;;
41687;SDS011;27371;42.686;23.362;2023-12-20T09:08:51;90.03;;;42.85;;
41687;SDS011;27371;42.686;23.362;2023-12-20T09:11:16;91.75;;;43.35;;
41687;SDS011;27371;42.686;23.362;2023-12-20T09:13:42;84.63;;;41.95;;
41687;SDS011;27371;42.686;23.362;2023-12-20T09:16:09;98.57;;;44.20;;
41687;SDS011;27371;42.686;23.362;2023-12-20T09:18:34;88.57;;;42.15;;
41687;SDS011;27371;42.686;23.362;2023-12-20T09:21:00;87.28;;;44.58;;
41687;SDS011;27371;42.686;23.362;2023-12-20T09:23:25;85.80;;;41.95;;
41687;SDS011;27371;42.686;23.362;2023-12-20T09:25:51;85.13;;;40.70;;
41687;SDS011;27371;42.686;23.362;2023-12-20T09:28:16;96.88;;;44.10;;
41687;SDS011;27371;42.686;23.362;2023-12-20T09:30:41;112.07;;;48.63;;
41687;SDS011;27371;42.686;23.362;2023-12-20T09:33:07;113.55;;;46.53;;
41687;SDS011;27371;42.686;23.362;2023-12-20T09:35:32;94.63;;;45.95;;
41687;SDS011;27371;42.686;23.362;2023-12-20T09:37:58;106.65;;;46.20;;
41687;SDS011;27371;42.686;23.362;2023-12-20T09:40:23;104.47;;;44.63;;
41687;SDS011;27371;42.686;23.362;2023-12-20T09:42:54;99.78;;;45.17;;
41687;SDS011;27371;42.686;23.362;2023-12-20T09:45:21;104.18;;;46.50;;
41687;SDS011;27371;42.686;23.362;2023-12-20T09:47:47;125.68;;;47.72;;
41687;SDS011;27371;42.686;23.362;2023-12-20T09:50:13;100.43;;;47.38;;
41687;SDS011;27371;42.686;23.362;2023-12-20T09:52:38;111.53;;;48.50;;
41687;SDS011;27371;42.686;23.362;2023-12-20T09:55:04;106.93;;;46.00;;
41687;SDS011;27371;42.686;23.362;2023-12-20T09:57:31;100.85;;;47.33;;
41687;SDS011;27371;42.686;23.362;2023-12-20T09:59:56;112.38;;;46.45;;
41687;SDS011;27371;42.686;23.362;2023-12-20T10:02:22;113.80;;;47.78;;
41687;SDS011;27371;42.686;23.362;2023-12-20T10:04:49;95.65;;;44.30;;
41687;SDS011;27371;42.686;23.362;2023-12-20T10:07:15;106.78;;;47.95;;
41687;SDS011;27371;42.686;23.362;2023-12-20T10:09:40;91.90;;;41.17;;
41687;SDS011;27371;42.686;23.362;2023-12-20T10:12:07;95.75;;;44.28;;
41687;SDS011;27371;42.686;23.362;2023-12-20T10:14:32;89.20;;;43.17;;
41687;SDS011;27371;42.686;23.362;2023-12-20T10:17:04;95.28;;;44.22;;
41687;SDS011;27371;42.686;23.362;2023-12-20T10:19:29;93.45;;;44.15;;
41687;SDS011;27371;42.686;23.362;2023-12-20T10:21:55;96.43;;;44.17;;
41687;SDS011;27371;42.686;23.362;2023-12-20T10:24:20;98.32;;;47.00;;
41687;SDS011;27371;42.686;23.362;2023-12-20T10:26:46;104.63;;;48.97;;
41687;SDS011;27371;42.686;23.362;2023-12-20T10:29:11;106.90;;;49.17;;
41687;SDS011;27371;42.686;23.362;2023-12-20T10:31:36;102.63;;;48.08;;
41687;SDS011;27371;42.686;23.362;2023-12-20T10:34:03;97.47;;;48.80;;
41687;SDS011;27371;42.686;23.362;2023-12-20T10:36:29;128.15;;;56.72;;
41687;SDS011;27371;42.686;23.362;2023-12-20T10:38:55;126.78;;;56.85;;
41687;SDS011;27371;42.686;23.362;2023-12-20T10:41:27;121.65;;;56.05;;
41687;SDS011;27371;42.686;23.362;2023-12-20T10:43:54;112.78;;;52.60;;
41687;SDS011;27371;42.686;23.362;2023-12-20T10:46:20;117.07;;;56.55;;
41687;SDS011;27371;42.686;23.362;2023-12-20T10:48:45;113.50;;;52.88;;
41687;SDS011;27371;42.686;23.362;2023-12-20T10:51:10;111.32;;;52.83;;
41687;SDS011;27371;42.686;23.362;2023-12-20T10:53:36;102.05;;;51.10;;
41687;SDS011;27371;42.686;23.362;2023-12-20T10:56:04;117.20;;;56.25;;
41687;SDS011;27371;42.686;23.362;2023-12-20T10:58:30;115.68;;;57.25;;
41687;SDS011;27371;42.686;23.362;2023-12-20T11:00:59;116.47;;;57.28;;
41687;SDS011;27371;42.686;23.362;2023-12-20T11:03:26;131.02;;;60.70;;
41687;SDS011;27371;42.686;23.362;2023-12-20T11:06:02;121.03;;;57.20;;
41687;SDS011;27371;42.686;23.362;2023-12-20T11:08:33;132.23;;;63.58;;
41687;SDS011;27371;42.686;23.362;2023-12-20T11:11:03;128.05;;;62.65;;
41687;SDS011;27371;42.686;23.362;2023-12-20T11:13:32;127.32;;;62.10;;
41687;SDS011;27371;42.686;23.362;2023-12-20T11:15:59;134.65;;;65.95;;
41687;SDS011;27371;42.686;23.362;2023-12-20T11:18:28;130.05;;;64.30;;
41687;SDS011;27371;42.686;23.362;2023-12-20T11:20:54;132.18;;;67.28;;
41687;SDS011;27371;42.686;23.362;2023-12-20T11:23:20;119.05;;;61.28;;
41687;SDS011;27371;42.686;23.362;2023-12-20T11:25:46;121.35;;;58.83;;
41687;SDS011;27371;42.686;23.362;2023-12-20T11:28:11;101.50;;;51.70;;
41687;SDS011;27371;42.686;23.362;2023-12-20T11:30:40;98.53;;;49.90;;
41687;SDS011;27371;42.686;23.362;2023-12-20T11:33:07;95.35;;;51.30;;
41687;SDS011;27371;42.686;23.362;2023-12-20T11:35:33;90.63;;;49.72;;
41687;SDS011;27371;42.686;23.362;2023-12-20T11:37:59;102.38;;;54.05;;
41687;SDS011;27371;42.686;23.362;2023-12-20T11:40:25;102.65;;;55.13;;
41687;SDS011;27371;42.686;23.362;2023-12-20T11:42:51;106.47;;;58.17;;
41687;SDS011;27371;42.686;23.362;2023-12-20T11:45:21;115.72;;;62.15;;
41687;SDS011;27371;42.686;23.362;2023-12-20T11:47:49;107.82;;;58.60;;
41687;SDS011;27371;42.686;23.362;2023-12-20T11:50:15;112.20;;;60.05;;
41687;SDS011;27371;42.686;23.362;2023-12-20T11:52:40;108.03;;;56.53;;
41687;SDS011;27371;42.686;23.362;2023-12-20T11:55:05;124.07;;;62.53;;
41687;SDS011;27371;42.686;23.362;2023-12-20T11:57:31;129.90;;;66.13;;
41687;SDS011;27371;42.686;23.362;2023-12-20T11:59:57;135.20;;;65.63;;
41687;SDS011;27371;42.686;23.362;2023-12-20T12:02:22;127.43;;;64.07;;
41687;SDS011;27371;42.686;23.362;2023-12-20T12:04:49;120.25;;;59.17;;
41687;SDS011;27371;42.686;23.362;2023-12-20T12:07:15;114.78;;;56.42;;
41687;SDS011;27371;42.686;23.362;2023-12-20T12:09:41;125.63;;;58.78;;
41687;SDS011;27371;42.686;23.362;2023-12-20T12:12:06;122.80;;;58.63;;
41687;SDS011;27371;42.686;23.362;2023-12-20T12:14:32;132.05;;;58.53;;
41687;SDS011;27371;42.686;23.362;2023-12-20T12:16:57;119.68;;;59.03;;
41687;SDS011;27371;42.686;23.362;2023-12-20T12:19:23;143.18;;;59.63;;
41687;SDS011;27371;42.686;23.362;2023-12-20T12:21:49;120.13;;;55.75;;
41687;SDS011;27371;42.686;23.362;2023-12-20T12:24:14;118.53;;;56.50;;
41687;SDS011;27371;42.686;23.362;2023-12-20T12:26:39;119.55;;;57.80;;
41687;SDS011;27371;42.686;23.362;2023-12-20T12:29:08;115.78;;;56.03;;
41687;SDS011;27371;42.686;23.362;2023-12-20T12:31:34;112.63;;;55.72;;
41687;SDS011;27371;42.686;23.362;2023-12-20T12:34:00;114.72;;;55.50;;
41687;SDS011;27371;42.686;23.362;2023-12-20T12:36:26;110.82;;;54.08;;
41687;SDS011;27371;42.686;23.362;2023-12-20T12:38:51;120.35;;;57.63;;
41687;SDS011;27371;42.686;23.362;2023-12-20T12:41:16;123.07;;;58.70;;
41687;SDS011;27371;42.686;23.362;2023-12-20T12:43:42;121.13;;;55.92;;
41687;SDS011;27371;42.686;23.362;2023-12-20T12:46:07;113.85;;;55.92;;
41687;SDS011;27371;42.686;23.362;2023-12-20T12:48:33;115.45;;;55.13;;
41687;SDS011;27371;42.686;23.362;2023-12-20T12:50:59;139.57;;;66.00;;
41687;SDS011;27371;42.686;23.362;2023-12-20T12:53:25;138.10;;;63.60;;
41687;SDS011;27371;42.686;23.362;2023-12-20T12:55:51;141.85;;;68.28;;
41687;SDS011;27371;42.686;23.362;2023-12-20T12:58:16;140.88;;;69.53;;
41687;SDS011;27371;42.686;23.362;2023-12-20T13:00:42;147.00;;;68.72;;
41687;SDS011;27371;42.686;23.362;2023-12-20T13:03:07;146.90;;;65.97;;
41687;SDS011;27371;42.686;23.362;2023-12-20T13:05:33;147.63;;;66.57;;
41687;SDS011;27371;42.686;23.362;2023-12-20T13:07:58;155.60;;;64.75;;
41687;SDS011;27371;42.686;23.362;2023-12-20T13:10:23;130.23;;;61.85;;
41687;SDS011;27371;42.686;23.362;2023-12-20T13:12:49;129.50;;;55.85;;
41687;SDS011;27371;42.686;23.362;2023-12-20T13:15:14;141.88;;;63.00;;
41687;SDS011;27371;42.686;23.362;2023-12-20T13:17:39;125.32;;;61.17;;
41687;SDS011;27371;42.686;23.362;2023-12-20T13:20:05;124.03;;;60.33;;
41687;SDS011;27371;42.686;23.362;2023-12-20T13:22:31;128.10;;;58.20;;
41687;SDS011;27371;42.686;23.362;2023-12-20T13:24:56;127.22;;;62.72;;
41687;SDS011;27371;42.686;23.362;2023-12-20T13:27:22;126.78;;;60.15;;
41687;SDS011;27371;42.686;23.362;2023-12-20T13:29:47;121.38;;;57.83;;
41687;SDS011;27371;42.686;23.362;2023-12-20T13:32:13;118.07;;;50.70;;
41687;SDS011;27371;42.686;23.362;2023-12-20T13:34:38;120.78;;;54.88;;
41687;SDS011;27371;42.686;23.362;2023-12-20T13:37:03;115.25;;;51.17;;
41687;SDS011;27371;42.686;23.362;2023-12-20T13:39:29;117.43;;;49.47;;
41687;SDS011;27371;42.686;23.362;2023-12-20T13:41:56;108.97;;;51.58;;
41687;SDS011;27371;42.686;23.362;2023-12-20T13:44:22;103.63;;;48.75;;
41687;SDS011;27371;42.686;23.362;2023-12-20T13:46:47;139.27;;;57.00;;
41687;SDS011;27371;42.686;23.362;2023-12-20T13:49:14;211.15;;;57.90;;
41687;SDS011;27371;42.686;23.362;2023-12-20T13:51:40;136.00;;;57.05;;
41687;SDS011;27371;42.686;23.362;2023-12-20T13:54:05;205.75;;;65.63;;